This is the latest recevied weather packets stored in our database for station/object EA1JVZ-1. If no packets are shown the sender has not sent any weather packets the latest 10 day(s).
| Time | Temp. | Humidity | Pressure | Rain* | Wind** | Luminosity | Snow |
|---|---|---|---|---|---|---|---|
| 1777830661 | 20° C | 45% | 1022.2 hPa | - | - | - | - |
| 1777829761 | 21.11° C | 44% | 1022 hPa | - | - | - | - |
| 1777828860 | 21.67° C | 44% | 1021.8 hPa | - | - | - | - |
| 1777827960 | 23.89° C | 40% | 1021.9 hPa | - | - | - | - |
| 1777827060 | 20° C | 44% | 1022.1 hPa | - | - | - | - |
| 1777826160 | 20.56° C | 43% | 1021.9 hPa | - | - | - | - |
| 1777825260 | 19.44° C | 45% | 1022 hPa | - | - | - | - |
| 1777824359 | 18.89° C | 46% | 1021.9 hPa | - | - | - | - |
| 1777823459 | 20° C | 46% | 1021.8 hPa | - | - | - | - |
| 1777822559 | 20.56° C | 46% | 1021.8 hPa | - | - | - | - |
| 1777821659 | 22.78° C | 44% | 1021.8 hPa | - | - | - | - |
| 1777820759 | 23.89° C | 43% | 1021.8 hPa | - | - | - | - |
| 1777819859 | 26.67° C | 41% | 1021.9 hPa | - | - | - | - |
| 1777818958 | 28.33° C | 39% | 1022 hPa | - | - | - | - |
| 1777818057 | 26.67° C | 40% | 1022.1 hPa | - | - | - | - |
| 1777817157 | 26.11° C | 40% | 1022.2 hPa | - | - | - | - |
| 1777816257 | 23.89° C | 42% | 1022.3 hPa | - | - | - | - |
| 1777815357 | 21.67° C | 41% | 1022.4 hPa | - | - | - | - |
| 1777814457 | 22.78° C | 43% | 1022.6 hPa | - | - | - | - |
| 1777813556 | 21.67° C | 44% | 1022.7 hPa | - | - | - | - |
| 1777812656 | 23.33° C | 42% | 1022.7 hPa | - | - | - | - |
| 1777811756 | 23.89° C | 43% | 1022.8 hPa | - | - | - | - |
| 1777810856 | 18.33° C | 49% | 1023.2 hPa | - | - | - | - |
| 1777809956 | 14.44° C | 56% | 1023.5 hPa | - | - | - | - |
| 1777809055 | 18.89° C | 48% | 1023.6 hPa | - | - | - | - |
* Rain since midnight (hover to see other rain measurements)
** Current wind speed in m/s (hover to see current wind gust speed)